UKON/NLV METAR and TAF weather

Enter ICAO airport designator
Station Type Date Time Source
UKON METAR 2019/04/22 14:00 UTC NOAA

UKON 221400Z 11005MPS 060V140 CAVOK 16/M06 Q1024 R04/090068 NOSIG


Station Type Date Time Source
UKON Decoded METAR 2019/04/22 14:00 UTC NOAA

Mykolaiv, Ukraine (UKON) 47-03-29N 031-55-15E
Apr 22, 2019 - 10:00 AM EDT / 2019.04.22 1400 UTC
Wind: from the ESE (110 degrees) at 11 MPH (10 KT) (direction variable):0
Visibility: greater than 7 mile(s):0
Temperature: 60 F (16 C)
Dew Point: 21 F (-6 C)
Relative Humidity: 21%
Pressure (altimeter): 30.24 in. Hg (1024 hPa)
ob: UKON 221400Z 11005MPS 060V140 CAVOK 16/M06 Q1024 R04/090068 NOSIG
cycle: 14

Station Type Date Time Source
UKON TAF 2018/11/06 15:06 UTC NOAA

TAF
AMD TAF
AMD UKON 061502Z 0615/0724 CNL

Example: see airport list